createdAt,value
2023-03-30T00:02:23.550Z,3.88
2023-03-30T00:04:51.386Z,3.47
2023-03-30T00:07:19.460Z,3.55
2023-03-30T00:09:46.521Z,3.05
2023-03-30T00:12:20.575Z,3.55
2023-03-30T00:14:47.688Z,3.08
2023-03-30T00:17:14.705Z,3.10
2023-03-30T00:19:41.777Z,3.88
2023-03-30T00:22:09.110Z,3.58
2023-03-30T00:24:36.718Z,3.67
2023-03-30T00:27:04.321Z,3.40
2023-03-30T00:29:31.532Z,3.67
2023-03-30T00:31:58.721Z,3.38
2023-03-30T00:34:25.823Z,3.30
2023-03-30T00:36:53.412Z,3.42
2023-03-30T00:39:22.756Z,3.80
2023-03-30T00:41:49.842Z,3.35
2023-03-30T00:44:35.640Z,3.75
2023-03-30T00:47:02.700Z,3.58
2023-03-30T00:49:31.931Z,3.78
2023-03-30T00:51:59.184Z,4.15
2023-03-30T00:54:26.236Z,3.70
2023-03-30T00:56:53.355Z,3.65
2023-03-30T00:59:20.452Z,3.45
2023-03-30T01:01:50.107Z,3.70
2023-03-30T01:04:17.267Z,3.87
2023-03-30T01:06:46.278Z,3.20
2023-03-30T01:09:13.928Z,3.88
2023-03-30T01:11:41.008Z,4.00
2023-03-30T01:14:09.200Z,3.95
2023-03-30T01:16:36.347Z,4.00
2023-03-30T01:19:08.273Z,3.80
2023-03-30T01:21:55.458Z,3.95
2023-03-30T01:24:42.874Z,3.75
2023-03-30T01:27:15.883Z,4.53
2023-03-30T01:29:45.180Z,4.30
2023-03-30T01:32:30.839Z,3.60
2023-03-30T01:35:00.752Z,3.47
2023-03-30T01:37:27.857Z,3.70
2023-03-30T01:40:00.792Z,4.05
2023-03-30T01:42:40.383Z,3.92
2023-03-30T01:45:10.503Z,3.95
2023-03-30T01:47:39.128Z,3.90
2023-03-30T01:50:06.522Z,4.40
2023-03-30T01:52:38.553Z,4.25
2023-03-30T01:55:08.704Z,4.05
2023-03-30T01:57:46.938Z,4.03
2023-03-30T02:00:14.696Z,4.38
2023-03-30T02:02:43.019Z,4.32
2023-03-30T02:05:10.408Z,4.22
2023-03-30T02:07:37.989Z,4.10
2023-03-30T02:10:05.624Z,4.28
2023-03-30T02:12:32.726Z,4.45
2023-03-30T02:15:01.350Z,4.13
2023-03-30T02:17:29.148Z,4.35
2023-03-30T02:19:57.991Z,4.47
2023-03-30T02:22:25.194Z,4.40
2023-03-30T02:24:53.796Z,3.90
2023-03-30T02:27:21.982Z,4.60
2023-03-30T02:29:49.232Z,4.20
2023-03-30T02:32:20.265Z,3.97
2023-03-30T02:35:10.169Z,4.90
2023-03-30T02:37:41.321Z,4.72
2023-03-30T02:40:14.699Z,4.30
2023-03-30T02:43:00.874Z,4.40
2023-03-30T02:45:51.088Z,4.43
2023-03-30T02:48:21.551Z,4.40
2023-03-30T02:51:08.742Z,4.68
2023-03-30T02:53:46.014Z,4.07
2023-03-30T02:56:15.914Z,4.53
2023-03-30T02:58:43.733Z,4.60
2023-03-30T03:01:23.577Z,4.82
2023-03-30T03:03:51.098Z,4.65
2023-03-30T03:06:18.294Z,4.97
2023-03-30T03:08:48.096Z,5.35
2023-03-30T03:11:15.693Z,5.47
2023-03-30T03:13:42.750Z,5.40
2023-03-30T03:16:12.119Z,6.25
2023-03-30T03:18:39.901Z,5.60
2023-03-30T03:21:07.556Z,5.72
2023-03-30T03:23:35.278Z,5.45
2023-03-30T03:26:02.464Z,5.55
2023-03-30T03:28:29.901Z,5.43
2023-03-30T03:30:58.371Z,3.88
2023-03-30T03:33:25.813Z,4.38
2023-03-30T03:35:54.098Z,3.85
2023-03-30T03:38:22.064Z,3.60
2023-03-30T03:40:56.219Z,4.05
2023-03-30T03:43:23.331Z,3.95
2023-03-30T03:45:50.673Z,4.32
2023-03-30T03:48:18.156Z,3.90
2023-03-30T03:50:45.585Z,4.05
2023-03-30T03:53:12.842Z,4.10
2023-03-30T03:55:39.912Z,3.75
2023-03-30T03:58:07.965Z,3.65
2023-03-30T04:00:35.251Z,4.65
2023-03-30T04:03:04.653Z,4.63
2023-03-30T04:05:32.053Z,4.40
2023-03-30T04:07:59.210Z,4.70
2023-03-30T04:10:26.405Z,4.30
2023-03-30T04:12:55.841Z,4.65
2023-03-30T04:15:23.343Z,5.40
2023-03-30T04:17:57.668Z,4.55
2023-03-30T04:20:25.559Z,4.50
2023-03-30T04:22:53.480Z,4.30
2023-03-30T04:25:22.776Z,4.38
2023-03-30T04:27:51.230Z,4.18
2023-03-30T04:30:18.560Z,4.47
2023-03-30T04:32:47.146Z,4.25
2023-03-30T04:35:14.380Z,4.28
2023-03-30T04:37:42.243Z,4.25
2023-03-30T04:40:09.734Z,4.90
2023-03-30T04:42:38.205Z,3.95
2023-03-30T04:45:06.154Z,4.15
2023-03-30T04:47:33.341Z,4.20
2023-03-30T04:50:01.159Z,4.43
2023-03-30T04:52:28.224Z,4.32
2023-03-30T04:54:55.448Z,3.97
2023-03-30T04:57:22.605Z,4.10
2023-03-30T04:59:49.700Z,3.95
2023-03-30T05:02:16.873Z,3.67
2023-03-30T05:04:44.054Z,3.78
2023-03-30T05:07:11.172Z,3.72
2023-03-30T05:09:38.295Z,4.53
2023-03-30T05:12:05.431Z,3.72
2023-03-30T05:14:32.494Z,4.10
2023-03-30T05:16:59.618Z,4.32
2023-03-30T05:19:26.780Z,3.47
2023-03-30T05:21:53.920Z,3.63
2023-03-30T05:24:21.108Z,3.55
2023-03-30T05:26:48.170Z,3.92
2023-03-30T05:29:15.645Z,3.88
2023-03-30T05:31:42.706Z,3.78
2023-03-30T05:34:10.003Z,4.20
2023-03-30T05:36:37.586Z,4.30
2023-03-30T05:39:05.309Z,3.60
2023-03-30T05:41:32.441Z,3.40
2023-03-30T05:43:59.568Z,3.55
2023-03-30T05:46:27.839Z,4.22
2023-03-30T05:48:54.966Z,4.30
2023-03-30T05:51:22.069Z,4.05
2023-03-30T05:53:49.134Z,3.90
2023-03-30T05:56:16.709Z,4.40
2023-03-30T05:58:43.784Z,4.30
2023-03-30T06:01:12.128Z,4.30
2023-03-30T06:03:39.802Z,4.00
2023-03-30T06:06:07.917Z,4.13
2023-03-30T06:08:34.967Z,4.88
2023-03-30T06:11:02.474Z,5.10
2023-03-30T06:13:29.843Z,4.40
2023-03-30T06:15:57.582Z,4.32
2023-03-30T06:18:25.008Z,4.53
2023-03-30T06:20:52.149Z,4.15
2023-03-30T06:23:19.203Z,4.35
2023-03-30T06:25:47.118Z,4.03
2023-03-30T06:28:14.351Z,4.53
2023-03-30T06:30:42.362Z,4.07
2023-03-30T06:33:09.740Z,4.45
2023-03-30T06:35:36.989Z,4.13
2023-03-30T06:38:04.381Z,4.55
2023-03-30T06:40:31.466Z,4.03
2023-03-30T06:42:58.552Z,4.70
2023-03-30T06:45:25.649Z,4.05
2023-03-30T06:47:52.837Z,4.30
2023-03-30T06:50:19.941Z,4.45
2023-03-30T06:52:47.158Z,4.25
2023-03-30T06:55:14.361Z,4.07
2023-03-30T06:57:41.533Z,3.75
2023-03-30T07:00:13.528Z,4.35
2023-03-30T07:02:41.517Z,3.97
2023-03-30T07:05:08.912Z,4.53
2023-03-30T07:07:36.052Z,3.97
2023-03-30T07:10:09.994Z,4.35
2023-03-30T07:12:41.296Z,4.38
2023-03-30T07:15:08.996Z,3.92
2023-03-30T07:17:36.400Z,4.20
2023-03-30T07:20:04.038Z,4.15
2023-03-30T07:22:31.623Z,3.75
2023-03-30T07:24:58.728Z,4.60
2023-03-30T07:27:26.019Z,4.05
2023-03-30T07:29:53.119Z,3.95
2023-03-30T07:32:20.299Z,5.20
2023-03-30T07:34:47.481Z,4.30
2023-03-30T07:37:20.228Z,4.35
2023-03-30T07:39:47.900Z,4.95
2023-03-30T07:42:15.459Z,5.00
2023-03-30T07:44:42.526Z,5.07
2023-03-30T07:47:09.820Z,4.57
2023-03-30T07:49:36.957Z,4.75
2023-03-30T07:52:04.033Z,4.70
2023-03-30T07:54:31.127Z,4.68
2023-03-30T07:56:58.271Z,4.80
2023-03-30T07:59:25.529Z,4.78
2023-03-30T08:01:54.586Z,4.88
2023-03-30T08:04:26.235Z,4.85
2023-03-30T08:06:53.926Z,4.95
2023-03-30T08:09:21.070Z,5.35
2023-03-30T08:11:48.233Z,5.10
2023-03-30T08:14:15.300Z,5.00
2023-03-30T08:16:42.332Z,4.93
2023-03-30T08:19:09.447Z,4.97
2023-03-30T08:21:36.970Z,5.53
2023-03-30T08:24:04.067Z,4.95
2023-03-30T08:26:31.205Z,5.18
2023-03-30T08:28:58.339Z,5.30
2023-03-30T08:31:25.962Z,5.45
2023-03-30T08:33:53.115Z,5.57
2023-03-30T08:36:20.722Z,6.03
2023-03-30T08:38:47.800Z,5.43
2023-03-30T08:41:30.377Z,5.45
2023-03-30T08:44:05.898Z,5.03
2023-03-30T08:46:33.005Z,4.45
2023-03-30T08:49:01.184Z,4.40
2023-03-30T08:51:28.681Z,4.90
2023-03-30T08:53:56.546Z,4.85
2023-03-30T08:56:24.887Z,4.68
2023-03-30T08:59:12.193Z,4.72
2023-03-30T09:01:51.371Z,3.63
2023-03-30T09:04:21.620Z,3.83
2023-03-30T09:06:52.828Z,3.47
2023-03-30T09:09:20.517Z,3.45
2023-03-30T09:11:49.030Z,3.15
2023-03-30T09:14:17.967Z,3.30
2023-03-30T09:17:07.521Z,3.40
2023-03-30T09:19:36.365Z,3.47
2023-03-30T09:22:03.643Z,3.00
2023-03-30T09:24:30.794Z,3.22
2023-03-30T09:27:03.327Z,2.85
2023-03-30T09:29:34.072Z,3.50
2023-03-30T09:32:06.444Z,2.97
2023-03-30T09:34:39.326Z,2.90
2023-03-30T09:37:12.723Z,3.03
2023-03-30T09:39:41.388Z,3.40
2023-03-30T09:42:16.251Z,2.50
2023-03-30T09:44:49.464Z,2.63
2023-03-30T09:47:36.724Z,2.95
2023-03-30T09:50:08.068Z,2.33
2023-03-30T09:52:37.063Z,2.53
2023-03-30T09:55:19.495Z,2.30
2023-03-30T09:57:46.601Z,2.42
2023-03-30T10:00:22.758Z,2.70
2023-03-30T10:02:57.515Z,3.13
2023-03-30T10:05:24.822Z,3.38
2023-03-30T10:07:58.766Z,2.80
2023-03-30T10:10:30.322Z,2.85
2023-03-30T10:13:17.067Z,3.60
2023-03-30T10:15:46.050Z,2.88
2023-03-30T10:18:33.424Z,2.60
2023-03-30T10:21:08.092Z,3.10
2023-03-30T10:23:39.796Z,2.60
2023-03-30T10:26:10.140Z,2.67
2023-03-30T10:31:05.437Z,3.10
2023-03-30T10:33:32.523Z,2.90
2023-03-30T10:36:03.603Z,2.78
2023-03-30T10:38:32.296Z,2.38
2023-03-30T10:41:02.999Z,2.47
2023-03-30T10:43:33.123Z,2.33
2023-03-30T10:46:16.764Z,2.30
2023-03-30T10:48:49.470Z,2.38
2023-03-30T10:53:47.425Z,2.17
2023-03-30T10:56:23.519Z,2.10
2023-03-30T10:58:59.580Z,1.98
2023-03-30T11:01:38.859Z,2.30
2023-03-30T11:04:23.583Z,2.00
2023-03-30T11:06:53.137Z,2.20
2023-03-30T11:09:21.937Z,1.85
2023-03-30T11:11:52.893Z,2.33
2023-03-30T11:14:21.990Z,1.80
2023-03-30T11:16:54.052Z,1.77
2023-03-30T11:19:23.280Z,1.65
2023-03-30T11:21:59.023Z,1.20
2023-03-30T11:24:26.976Z,1.30
2023-03-30T11:27:00.033Z,1.48
2023-03-30T11:29:37.611Z,1.48
2023-03-30T11:32:23.522Z,1.25
2023-03-30T11:35:06.023Z,1.40
2023-03-30T11:38:11.591Z,1.38
2023-03-30T11:40:38.614Z,1.10
2023-03-30T11:43:05.687Z,0.88
2023-03-30T11:45:36.091Z,1.13
2023-03-30T11:48:26.993Z,1.30
2023-03-30T11:51:04.008Z,1.15
2023-03-30T11:53:48.720Z,0.60
2023-03-30T11:56:24.532Z,0.70
2023-03-30T11:59:06.453Z,0.70
2023-03-30T12:02:06.051Z,0.65
2023-03-30T12:04:38.663Z,0.70
2023-03-30T12:07:05.910Z,0.60
2023-03-30T12:09:44.773Z,0.50
2023-03-30T12:12:17.958Z,0.57
2023-03-30T12:14:51.079Z,0.50
2023-03-30T12:17:25.603Z,0.85
2023-03-30T12:19:56.491Z,0.60
2023-03-30T12:22:23.757Z,0.57
2023-03-30T12:24:52.548Z,0.90
2023-03-30T12:27:19.591Z,0.68
2023-03-30T12:30:02.460Z,0.50
2023-03-30T12:32:30.863Z,0.50
2023-03-30T12:34:58.438Z,0.38
2023-03-30T12:37:35.532Z,0.45
2023-03-30T12:40:09.122Z,0.65
2023-03-30T12:42:39.524Z,0.30
2023-03-30T12:47:49.173Z,0.50
2023-03-30T12:50:28.266Z,0.70
2023-03-30T12:53:08.903Z,0.63
2023-03-30T12:55:54.143Z,0.50
2023-03-30T12:58:35.384Z,0.50
2023-03-30T13:01:07.506Z,0.57
2023-03-30T13:06:01.800Z,0.43
2023-03-30T13:08:39.251Z,0.85
2023-03-30T13:11:13.625Z,0.90
2023-03-30T13:13:46.776Z,0.88
2023-03-30T13:16:14.514Z,0.90
2023-03-30T13:18:54.773Z,0.70
2023-03-30T13:21:25.556Z,1.00
2023-03-30T13:24:04.266Z,1.02
2023-03-30T13:26:39.978Z,0.70
2023-03-30T13:29:08.449Z,0.70
2023-03-30T13:31:40.153Z,0.60
2023-03-30T13:34:11.489Z,0.70
2023-03-30T13:36:43.648Z,0.68
2023-03-30T13:39:18.834Z,0.65
2023-03-30T13:41:58.752Z,0.77
2023-03-30T13:44:33.098Z,0.70
2023-03-30T13:47:00.398Z,0.65
2023-03-30T13:49:27.462Z,0.70
2023-03-30T13:51:55.089Z,1.17
2023-03-30T13:54:24.706Z,0.60
2023-03-30T13:57:10.399Z,0.70
2023-03-30T13:59:38.242Z,0.65
2023-03-30T14:02:05.603Z,0.50
2023-03-30T14:04:33.591Z,0.88
2023-03-30T14:07:05.527Z,0.77
2023-03-30T14:09:32.625Z,0.60
2023-03-30T14:12:00.708Z,0.50
2023-03-30T14:14:28.191Z,0.60
2023-03-30T14:16:55.245Z,0.70
2023-03-30T14:19:23.792Z,0.68
2023-03-30T14:21:52.874Z,0.90
2023-03-30T14:24:21.099Z,0.80
2023-03-30T14:26:49.084Z,0.85
2023-03-30T14:29:24.653Z,1.00
2023-03-30T14:32:08.113Z,0.68
2023-03-30T14:34:36.635Z,0.57
2023-03-30T14:37:04.521Z,0.60
2023-03-30T14:39:31.844Z,0.50
2023-03-30T14:41:59.710Z,0.57
2023-03-30T14:44:26.833Z,0.60
2023-03-30T14:46:53.906Z,0.90
2023-03-30T14:49:22.333Z,0.65
2023-03-30T14:51:50.387Z,0.85
2023-03-30T14:54:18.075Z,0.80
2023-03-30T14:56:46.430Z,0.68
2023-03-30T14:59:13.512Z,0.60
2023-03-30T15:01:40.865Z,0.65
2023-03-30T15:04:11.794Z,0.90
2023-03-30T15:06:38.952Z,0.82
2023-03-30T15:09:07.991Z,0.70
2023-03-30T15:11:35.311Z,0.90
2023-03-30T15:14:03.885Z,0.60
2023-03-30T15:16:32.874Z,0.70
2023-03-30T15:19:07.143Z,0.77
2023-03-30T15:21:34.820Z,0.68
2023-03-30T15:24:01.846Z,0.80
2023-03-30T15:26:28.976Z,0.95
2023-03-30T15:28:59.056Z,0.70
2023-03-30T15:31:26.738Z,0.93
2023-03-30T15:33:54.613Z,0.80
2023-03-30T15:36:22.936Z,0.70
2023-03-30T15:38:53.636Z,0.70
2023-03-30T15:41:24.629Z,0.70
2023-03-30T15:43:55.778Z,0.90
2023-03-30T15:46:22.949Z,1.88
2023-03-30T15:48:50.940Z,1.35
2023-03-30T15:51:20.605Z,0.70
2023-03-30T15:53:50.491Z,0.68
2023-03-30T15:56:36.348Z,0.88
2023-03-30T15:59:03.488Z,0.80
2023-03-30T16:01:49.396Z,1.00
2023-03-30T16:04:17.306Z,1.10
2023-03-30T16:06:46.689Z,0.80
2023-03-30T16:09:14.452Z,1.40
2023-03-30T16:11:41.980Z,1.25
2023-03-30T16:14:11.432Z,1.27
2023-03-30T16:16:38.551Z,1.00
2023-03-30T16:19:07.242Z,1.40
2023-03-30T16:21:34.299Z,1.02
2023-03-30T16:24:02.860Z,1.17
2023-03-30T16:26:30.176Z,1.50
2023-03-30T16:28:57.201Z,2.25
2023-03-30T16:31:24.433Z,0.70
2023-03-30T16:33:51.791Z,1.02
2023-03-30T16:36:19.952Z,0.90
2023-03-30T16:38:47.122Z,0.93
2023-03-30T16:41:19.330Z,0.85
2023-03-30T16:43:46.409Z,0.80
2023-03-30T16:46:14.371Z,0.60
2023-03-30T16:48:41.469Z,1.08
2023-03-30T16:51:09.553Z,0.98
2023-03-30T16:53:36.632Z,0.90
2023-03-30T16:56:03.728Z,1.13
2023-03-30T16:58:30.857Z,1.25
2023-03-30T17:01:04.046Z,1.25
2023-03-30T17:03:31.890Z,1.40
2023-03-30T17:05:58.962Z,1.15
2023-03-30T17:08:26.764Z,1.10
2023-03-30T17:10:54.556Z,0.98
2023-03-30T17:13:21.677Z,1.30
2023-03-30T17:15:48.761Z,1.20
2023-03-30T17:18:17.095Z,2.75
2023-03-30T17:20:54.068Z,1.33
2023-03-30T17:23:21.469Z,1.15
2023-03-30T17:25:49.525Z,1.27
2023-03-30T17:28:21.138Z,1.27
2023-03-30T17:30:48.328Z,1.15
2023-03-30T17:33:15.712Z,1.27
2023-03-30T17:35:43.831Z,1.25
2023-03-30T17:38:10.957Z,0.88
2023-03-30T17:40:38.868Z,1.73
2023-03-30T17:43:10.693Z,1.23
2023-03-30T17:45:38.167Z,1.23
2023-03-30T17:48:05.855Z,1.08
2023-03-30T17:50:33.803Z,1.80
2023-03-30T17:53:01.088Z,1.60
2023-03-30T17:55:28.764Z,1.33
2023-03-30T17:57:55.857Z,1.60
2023-03-30T18:00:29.988Z,1.45
2023-03-30T18:02:57.452Z,1.52
2023-03-30T18:05:25.443Z,2.13
2023-03-30T18:07:52.815Z,2.75
2023-03-30T18:10:24.186Z,1.90
2023-03-30T18:12:51.511Z,2.22
2023-03-30T18:15:19.119Z,1.63
2023-03-30T18:17:46.424Z,1.40
2023-03-30T18:20:17.569Z,1.58
2023-03-30T18:22:44.730Z,1.38
2023-03-30T18:25:21.948Z,1.70
2023-03-30T18:27:56.756Z,1.20
2023-03-30T18:30:41.733Z,1.52
2023-03-30T18:33:08.901Z,1.40
2023-03-30T18:35:36.455Z,1.60
2023-03-30T18:38:03.694Z,1.42
2023-03-30T18:40:32.872Z,1.50
2023-03-30T18:43:00.273Z,1.35
2023-03-30T18:45:28.184Z,1.20
2023-03-30T18:47:55.890Z,0.90
2023-03-30T18:50:29.521Z,1.27
2023-03-30T18:52:56.722Z,1.30
2023-03-30T18:55:23.750Z,1.08
2023-03-30T18:57:50.772Z,1.38
2023-03-30T19:00:19.408Z,1.25
2023-03-30T19:02:46.568Z,1.17
2023-03-30T19:05:13.675Z,1.40
2023-03-30T19:07:40.980Z,1.00
2023-03-30T19:10:10.302Z,1.20
2023-03-30T19:12:37.807Z,0.98
2023-03-30T19:15:05.517Z,1.10
2023-03-30T19:17:32.587Z,1.42
2023-03-30T19:19:59.705Z,1.50
2023-03-30T19:22:26.714Z,1.40
2023-03-30T19:24:53.824Z,1.20
2023-03-30T19:27:20.921Z,1.63
2023-03-30T19:29:47.952Z,1.30
2023-03-30T19:32:16.529Z,1.80
2023-03-30T19:34:43.613Z,1.58
2023-03-30T19:37:10.863Z,1.13
2023-03-30T19:39:37.925Z,1.92
2023-03-30T19:42:05.295Z,1.77
2023-03-30T19:44:33.208Z,1.88
2023-03-30T19:47:00.255Z,1.63
2023-03-30T19:49:27.309Z,1.25
2023-03-30T19:51:54.327Z,1.45
2023-03-30T19:54:21.434Z,1.70
2023-03-30T19:56:48.580Z,1.30
2023-03-30T19:59:15.850Z,1.60
2023-03-30T20:01:42.938Z,1.35
2023-03-30T20:04:10.034Z,1.15
2023-03-30T20:06:37.065Z,1.65
2023-03-30T20:09:04.517Z,1.27
2023-03-30T20:11:31.891Z,1.42
2023-03-30T20:13:58.951Z,1.20
2023-03-30T20:16:25.994Z,1.70
2023-03-30T20:18:53.369Z,1.30
2023-03-30T20:21:21.278Z,1.67
2023-03-30T20:23:48.378Z,1.40
2023-03-30T20:26:19.351Z,1.13
2023-03-30T20:28:46.958Z,1.35
2023-03-30T20:31:14.133Z,2.00
2023-03-30T20:33:41.366Z,1.50
2023-03-30T20:36:08.642Z,1.48
2023-03-30T20:38:39.497Z,4.55
2023-03-30T20:41:07.093Z,1.95
2023-03-30T20:46:14.068Z,1.67
2023-03-30T20:48:41.265Z,1.77
2023-03-30T20:51:14.759Z,1.65
2023-03-30T20:53:42.349Z,1.63
2023-03-30T20:56:10.291Z,1.80
2023-03-30T20:58:37.493Z,1.60
2023-03-30T21:01:11.325Z,1.80
2023-03-30T21:03:41.116Z,9.82
2023-03-30T21:06:08.802Z,2.00
2023-03-30T21:08:35.970Z,1.30
2023-03-30T21:11:03.215Z,1.33
2023-03-30T21:13:30.437Z,1.48
2023-03-30T21:15:58.386Z,1.85
2023-03-30T21:18:25.892Z,1.73
2023-03-30T21:20:53.025Z,1.95
2023-03-30T21:23:21.353Z,1.60
2023-03-30T21:25:48.463Z,1.75
2023-03-30T21:28:15.526Z,1.73
2023-03-30T21:30:42.582Z,1.80
2023-03-30T21:33:09.653Z,1.80
2023-03-30T21:35:36.773Z,1.90
2023-03-30T21:38:04.267Z,1.90
2023-03-30T21:40:31.438Z,1.80
2023-03-30T21:42:58.498Z,1.48
2023-03-30T21:45:25.623Z,1.77
2023-03-30T21:47:52.753Z,1.88
2023-03-30T21:50:19.908Z,2.00
2023-03-30T21:52:47.255Z,1.75
2023-03-30T21:55:14.277Z,1.50
2023-03-30T21:57:41.373Z,2.00
2023-03-30T22:00:09.961Z,1.58
2023-03-30T22:02:37.230Z,1.85
2023-03-30T22:05:04.366Z,1.85
2023-03-30T22:07:31.449Z,2.00
2023-03-30T22:09:59.708Z,2.35
2023-03-30T22:12:26.800Z,1.45
2023-03-30T22:14:53.858Z,2.30
2023-03-30T22:17:21.041Z,1.80
2023-03-30T22:19:51.845Z,1.75
2023-03-30T22:22:19.207Z,1.95
2023-03-30T22:24:46.273Z,1.80
2023-03-30T22:27:13.945Z,1.83
2023-03-30T22:29:41.016Z,3.85
2023-03-30T22:32:09.812Z,2.13
2023-03-30T22:34:37.628Z,1.60
2023-03-30T22:37:04.675Z,1.67
2023-03-30T22:39:31.710Z,1.77
2023-03-30T22:41:58.797Z,1.83
2023-03-30T22:44:25.938Z,1.52
2023-03-30T22:46:53.822Z,1.88
2023-03-30T22:49:21.087Z,1.55
2023-03-30T22:51:53.287Z,1.92
2023-03-30T22:54:20.466Z,2.25
2023-03-30T22:56:48.641Z,1.27
2023-03-30T22:59:15.769Z,1.38
2023-03-30T23:01:42.937Z,1.23
2023-03-30T23:04:10.006Z,1.42
2023-03-30T23:06:37.224Z,2.85
2023-03-30T23:09:04.738Z,1.23
2023-03-30T23:11:31.982Z,1.10
2023-03-30T23:14:05.990Z,1.20
2023-03-30T23:16:34.163Z,1.42
2023-03-30T23:19:01.308Z,1.30
2023-03-30T23:21:34.666Z,1.10
2023-03-30T23:24:02.450Z,1.20
2023-03-30T23:26:29.812Z,1.17
2023-03-30T23:28:57.126Z,1.42
2023-03-30T23:31:27.253Z,1.25
2023-03-30T23:33:54.974Z,1.33
2023-03-30T23:36:22.501Z,1.40
2023-03-30T23:38:49.733Z,1.00
2023-03-30T23:41:17.322Z,1.20
2023-03-30T23:43:44.445Z,1.23
2023-03-30T23:46:11.875Z,1.45
2023-03-30T23:48:39.103Z,1.08
2023-03-30T23:51:06.657Z,1.23
2023-03-30T23:53:33.712Z,1.08
2023-03-30T23:56:05.810Z,1.20
2023-03-30T23:58:33.056Z,1.40
